Time;durP1;ratioP1;P1;durP2;ratioP2;P2;SDS_P1;SDS_P2;PMS_P1;PMS_P2;Temp;Humidity;BMP_temperature;BMP_pressure;BME280_temperature;BME280_humidity;BME280_pressure;Samples;Min_cycle;Max_cycle;Signal;HPM_P1;HPM_P2
2024/01/15 00:01:07;;;;;;;;;30.75;26.25;;;;;1.81;100.00;100959.75;5036277;28;45309;-73
2024/01/15 00:03:32;;;;;;;;;44.00;36.50;;;;;1.88;100.00;100964.03;5055483;28;45331;-73
2024/01/15 00:05:58;;;;;;;;;33.75;31.00;;;;;1.85;100.00;100956.25;5054912;28;45367;-73
2024/01/15 00:08:23;;;;;;;;;39.25;30.25;;;;;1.63;100.00;100911.28;5061115;28;48781;-73
2024/01/15 00:10:48;;;;;;;;;37.50;34.50;;;;;1.85;100.00;100945.81;5061092;28;45402;-73
2024/01/15 00:13:13;;;;;;;;;42.25;33.75;;;;;1.92;100.00;100945.75;5061078;28;45303;-73
2024/01/15 00:15:39;;;;;;;;;33.50;31.75;;;;;1.88;100.00;100936.22;5048133;28;45418;-73
2024/01/15 00:18:05;;;;;;;;;39.00;34.00;;;;;1.95;100.00;100939.63;5054129;28;45412;-73
2024/01/15 00:20:30;;;;;;;;;42.25;33.25;;;;;1.86;100.00;100924.97;5049156;28;45258;-73
2024/01/15 00:22:55;;;;;;;;;42.50;35.00;;;;;1.83;100.00;100917.13;5045539;28;45379;-73
2024/01/15 00:25:21;;;;;;;;;35.25;32.50;;;;;1.91;100.00;100927.50;5056363;28;46225;-73
2024/01/15 00:27:46;;;;;;;;;35.75;31.50;;;;;1.91;100.00;100917.94;5059792;28;45352;-73
2024/01/15 00:30:12;;;;;;;;;44.25;33.25;;;;;1.87;100.00;100913.63;5043276;28;46226;-73
2024/01/15 00:32:37;;;;;;;;;33.00;27.25;;;;;1.78;100.00;100900.69;5061715;28;45433;-73
2024/01/15 00:35:03;;;;;;;;;31.50;26.25;;;;;1.96;100.00;100920.50;5065636;28;46325;-73
2024/01/15 00:37:28;;;;;;;;;29.75;27.25;;;;;1.96;100.00;100929.16;5061105;28;45402;-73
2024/01/15 00:39:54;;;;;;;;;36.75;28.50;;;;;2.02;100.00;100933.47;5059994;28;45228;-73
2024/01/15 00:42:19;;;;;;;;;38.75;28.50;;;;;1.99;100.00;100907.44;5054467;28;45478;-74
2024/01/15 00:44:44;;;;;;;;;31.25;31.25;;;;;1.98;100.00;100896.13;5058693;28;45341;-73
2024/01/15 00:47:10;;;;;;;;;34.00;28.75;;;;;1.98;100.00;100898.75;5054344;28;45236;-73
2024/01/15 00:49:35;;;;;;;;;36.25;31.00;;;;;1.83;100.00;100864.16;5058574;28;45382;-73
2024/01/15 00:52:01;;;;;;;;;32.75;30.75;;;;;2.00;100.00;100883.06;5054219;28;45398;-73
2024/01/15 00:54:26;;;;;;;;;36.25;31.50;;;;;2.09;100.00;100896.03;5050865;28;46943;-73
2024/01/15 00:56:52;;;;;;;;;27.75;26.00;;;;;2.08;100.00;100887.34;5060762;28;45378;-73
2024/01/15 00:59:17;;;;;;;;;40.50;27.50;;;;;2.03;100.00;100883.91;5049240;28;45233;-73
2024/01/15 01:01:43;;;;;;;;;30.75;24.75;;;;;2.07;100.00;100887.34;5044841;28;45417;-73
2024/01/15 01:04:09;;;;;;;;;37.00;33.75;;;;;2.10;100.00;100885.56;5057004;28;45467;-73
2024/01/15 01:06:35;;;;;;;;;48.50;33.75;;;;;2.12;100.00;100889.91;5044271;28;45483;-73
2024/01/15 01:09:00;;;;;;;;;32.25;26.50;;;;;2.09;100.00;100880.38;5047727;28;45237;-73
2024/01/15 01:11:26;;;;;;;;;35.75;32.75;;;;;1.89;100.00;100838.88;5055102;28;45440;-74
2024/01/15 01:13:51;;;;;;;;;32.00;29.25;;;;;1.89;100.00;100832.78;5059872;28;45405;-73
2024/01/15 01:16:17;;;;;;;;;30.00;28.25;;;;;2.15;100.00;100877.69;5060854;28;45236;-73
2024/01/15 01:18:42;;;;;;;;;34.00;30.00;;;;;2.20;100.00;100877.63;5060231;28;45509;-73
2024/01/15 01:21:07;;;;;;;;;21.25;18.50;;;;;2.14;100.00;100875.94;5041229;28;45450;-73
2024/01/15 01:23:33;;;;;;;;;48.75;34.50;;;;;1.96;100.00;100840.50;5060089;28;45462;-73
2024/01/15 01:25:58;;;;;;;;;36.25;33.75;;;;;2.11;100.00;100855.13;5058389;28;45381;-73
2024/01/15 01:28:23;;;;;;;;;37.75;31.25;;;;;2.09;100.00;100844.69;5046682;28;45498;-73
2024/01/15 01:30:49;;;;;;;;;36.50;29.50;;;;;2.16;100.00;100848.09;5056996;28;45394;-73
2024/01/15 01:33:14;;;;;;;;;34.25;31.00;;;;;2.15;100.00;100841.16;5043909;28;46276;-73
2024/01/15 01:35:39;;;;;;;;;32.00;25.25;;;;;2.24;100.00;100848.88;5057167;28;45364;-73
2024/01/15 01:38:05;;;;;;;;;35.75;29.75;;;;;2.25;100.00;100852.34;5068913;28;45406;-73
2024/01/15 01:40:30;;;;;;;;;30.75;27.00;;;;;2.22;100.00;100853.25;5060583;28;45181;-73
2024/01/15 01:42:55;;;;;;;;;44.25;29.75;;;;;2.30;100.00;100855.75;5054608;28;48206;-73
2024/01/15 01:45:21;;;;;;;;;33.75;31.50;;;;;2.02;100.00;100813.50;5059176;28;45307;-74
2024/01/15 01:47:46;;;;;;;;;36.25;30.00;;;;;2.27;100.00;100845.34;5060223;28;45384;-73
2024/01/15 01:50:13;;;;;;;;;37.00;29.25;;;;;2.25;100.00;100842.78;5056736;28;45250;-73
2024/01/15 01:52:39;;;;;;;;;32.50;29.00;;;;;2.35;100.00;100846.13;5057968;28;46363;-74
2024/01/15 01:55:07;;;;;;;;;31.25;25.25;;;;;2.32;100.00;100847.03;5052526;28;45257;-73
2024/01/15 01:57:34;;;;;;;;;36.75;30.50;;;;;2.27;100.00;100832.31;5058535;28;45467;-73
2024/01/15 02:00:03;;;;;;;;;30.00;26.00;;;;;2.29;100.00;100827.94;5059462;28;45353;-73
2024/01/15 02:02:29;;;;;;;;;41.50;27.75;;;;;2.37;100.00;100828.69;5052410;28;45438;-73
2024/01/15 02:04:54;;;;;;;;;33.00;28.00;;;;;2.39;100.00;100826.94;5055246;28;45346;-73
2024/01/15 02:07:20;;;;;;;;;34.75;22.00;;;;;2.37;100.00;100819.13;5029794;28;45338;-73
2024/01/15 02:09:46;;;;;;;;;28.75;25.00;;;;;2.32;100.00;100807.03;5052551;28;45542;-73
2024/01/15 02:12:11;;;;;;;;;36.50;28.25;;;;;2.40;100.00;100821.69;5059718;28;45398;-73
2024/01/15 02:14:36;;;;;;;;;32.50;29.75;;;;;2.38;100.00;100796.50;5048927;28;45330;-73
2024/01/15 02:17:02;;;;;;;;;32.25;26.75;;;;;2.26;100.00;100773.19;5035658;28;45263;-73
2024/01/15 02:19:27;;;;;;;;;37.50;28.00;;;;;2.40;100.00;100808.63;5032202;28;45529;-73
2024/01/15 02:21:53;;;;;;;;;30.25;25.50;;;;;2.41;100.00;100806.91;5054138;28;46092;-73
2024/01/15 02:24:18;;;;;;;;;37.25;28.25;;;;;2.36;100.00;100800.88;5058320;28;45174;-74
2024/01/15 02:26:44;;;;;;;;;32.00;27.25;;;;;2.43;100.00;100829.47;5058030;28;45268;-75
2024/01/15 02:29:11;;;;;;;;;16.50;14.25;;;;;2.44;100.00;100826.00;5058961;28;45441;-74
2024/01/15 02:31:37;;;;;;;;;31.00;26.00;;;;;2.53;100.00;100838.03;5059623;28;45399;-74
2024/01/15 02:34:02;;;;;;;;;33.00;25.75;;;;;2.48;100.00;100832.91;5056823;28;45346;-73
2024/01/15 02:36:28;;;;;;;;;27.75;23.75;;;;;2.35;100.00;100817.44;5059079;28;45240;-73
2024/01/15 02:38:53;;;;;;;;;32.25;28.25;;;;;2.52;100.00;100836.34;5056492;28;45512;-74
2024/01/15 02:41:18;;;;;;;;;30.00;27.25;;;;;2.41;100.00;100822.56;5059105;28;46273;-74
2024/01/15 02:43:44;;;;;;;;;39.25;29.00;;;;;2.03;100.00;100745.66;5047974;28;45730;-73
2024/01/15 02:46:09;;;;;;;;;29.50;28.75;;;;;2.44;100.00;100817.28;5059702;28;45417;-74
2024/01/15 02:48:37;;;;;;;;;29.00;23.75;;;;;2.47;100.00;100814.63;5059247;28;45422;-74
2024/01/15 02:51:03;;;;;;;;;27.00;22.25;;;;;2.29;100.00;100797.47;5058816;28;45280;-74
2024/01/15 02:53:28;;;;;;;;;28.00;25.75;;;;;2.42;100.00;100825.13;5040971;28;45685;-74
2024/01/15 02:55:53;;;;;;;;;40.25;27.75;;;;;2.30;100.00;100801.81;5059700;28;45488;-74
2024/01/15 02:58:19;;;;;;;;;27.75;25.00;;;;;2.02;100.00;100757.00;5058799;28;45237;-73
2024/01/15 03:00:46;;;;;;;;;34.50;28.25;;;;;2.46;100.00;100821.59;5059253;28;46459;-74
2024/01/15 03:03:11;;;;;;;;;28.00;25.00;;;;;2.46;100.00;100821.59;5057296;28;45712;-74
2024/01/15 03:05:37;;;;;;;;;33.25;30.00;;;;;2.44;100.00;100815.56;5045062;28;45323;-74
2024/01/15 03:08:02;;;;;;;;;33.00;28.00;;;;;2.43;100.00;100820.78;5062189;28;45295;-74
2024/01/15 03:10:28;;;;;;;;;29.50;24.00;;;;;2.48;100.00;100824.22;5062470;28;46568;-73
2024/01/15 03:12:53;;;;;;;;;23.00;21.50;;;;;2.47;100.00;100833.78;5062126;28;45576;-74
2024/01/15 03:15:18;;;;;;;;;29.00;26.00;;;;;2.41;100.00;100830.38;5051208;28;45291;-73
2024/01/15 03:17:44;;;;;;;;;29.25;26.50;;;;;2.47;100.00;100844.22;5062527;28;45393;-74
2024/01/15 03:20:10;;;;;;;;;38.25;31.50;;;;;2.43;100.00;100826.00;5062521;28;45384;-73
2024/01/15 03:22:35;;;;;;;;;19.00;16.25;;;;;2.47;100.00;100831.16;5059121;28;45521;-74
2024/01/15 03:25:00;;;;;;;;;38.75;26.50;;;;;2.33;100.00;100814.81;5062529;28;45316;-74
2024/01/15 03:27:26;;;;;;;;;30.75;24.25;;;;;2.49;100.00;100838.97;5061239;28;45322;-73
2024/01/15 03:29:51;;;;;;;;;28.50;25.25;;;;;2.47;100.00;100836.38;5061799;28;45443;-74
2024/01/15 03:32:17;;;;;;;;;30.50;25.50;;;;;2.49;100.00;100834.59;5062198;28;45238;-74
2024/01/15 03:34:42;;;;;;;;;31.75;25.50;;;;;2.50;100.00;100844.19;5071873;28;45544;-74
2024/01/15 03:37:07;;;;;;;;;28.50;21.50;;;;;2.51;100.00;100845.03;5043548;28;45343;-74
2024/01/15 03:39:33;;;;;;;;;32.75;24.00;;;;;2.48;100.00;100826.81;5059282;28;46232;-74
2024/01/15 03:41:58;;;;;;;;;28.25;23.25;;;;;2.43;100.00;100819.03;5060432;28;45280;-74
2024/01/15 03:44:24;;;;;;;;;26.75;23.50;;;;;2.47;100.00;100823.34;5061793;28;45686;-73
2024/01/15 03:46:50;;;;;;;;;30.00;28.75;;;;;2.45;100.00;100827.72;5060433;28;45603;-73
2024/01/15 03:49:15;;;;;;;;;27.25;18.50;;;;;2.44;100.00;100822.50;5061607;28;45407;-74
2024/01/15 03:51:41;;;;;;;;;19.75;18.00;;;;;2.46;100.00;100828.56;5060876;28;46049;-74
2024/01/15 03:54:06;;;;;;;;;24.00;18.75;;;;;2.50;100.00;100830.25;5065597;28;45315;-74
2024/01/15 03:56:31;;;;;;;;;24.50;20.75;;;;;2.45;100.00;100801.63;5057134;28;45512;-74
2024/01/15 03:58:57;;;;;;;;;20.00;20.00;;;;;2.51;100.00;100811.97;5061509;28;46518;-74
2024/01/15 04:01:22;;;;;;;;;25.00;20.25;;;;;2.44;100.00;100796.41;5037740;28;45957;-74
2024/01/15 04:03:48;;;;;;;;;27.00;21.00;;;;;2.26;100.00;100770.59;5060310;28;45248;-74
2024/01/15 04:06:13;;;;;;;;;31.00;24.50;;;;;2.50;100.00;100794.56;5060258;28;45303;-74
2024/01/15 04:08:38;;;;;;;;;21.50;19.75;;;;;2.47;100.00;100793.75;5058432;28;47990;-74
2024/01/15 04:11:04;;;;;;;;;26.50;21.50;;;;;2.21;100.00;100739.34;5056749;28;45342;-74
2024/01/15 04:13:32;;;;;;;;;23.75;16.00;;;;;2.38;100.00;100766.06;5059069;28;45386;-74
2024/01/15 04:15:58;;;;;;;;;29.25;22.75;;;;;2.41;100.00;100772.97;5061353;28;45344;-74
2024/01/15 04:18:23;;;;;;;;;24.50;21.75;;;;;2.45;100.00;100777.28;5061384;28;45734;-73
2024/01/15 04:20:48;;;;;;;;;24.50;22.25;;;;;2.29;100.00;100747.06;5061577;28;45492;-74
2024/01/15 04:23:14;;;;;;;;;23.25;21.00;;;;;2.42;100.00;100761.66;5059580;28;45283;-74
2024/01/15 04:25:42;;;;;;;;;23.25;17.00;;;;;2.45;100.00;100766.84;5060378;28;45205;-74
2024/01/15 04:28:08;;;;;;;;;27.25;25.75;;;;;2.33;100.00;100756.56;5060898;28;45390;-74
2024/01/15 04:30:34;;;;;;;;;30.25;22.25;;;;;2.50;100.00;100771.09;5071204;28;45438;-74
2024/01/15 04:32:59;;;;;;;;;29.50;19.25;;;;;2.43;100.00;100747.69;5061652;28;45388;-73
2024/01/15 04:35:24;;;;;;;;;23.75;21.25;;;;;2.56;100.00;100770.13;5058260;28;45465;-74
2024/01/15 04:37:50;;;;;;;;;29.00;22.25;;;;;2.47;100.00;100750.25;5060900;28;46245;-73
2024/01/15 04:40:15;;;;;;;;;21.75;21.25;;;;;2.52;100.00;100758.03;5061262;28;45305;-74
2024/01/15 04:42:40;;;;;;;;;25.50;22.00;;;;;2.49;100.00;100745.00;5059158;28;45307;-74
2024/01/15 04:45:06;;;;;;;;;23.25;20.25;;;;;2.50;100.00;100745.00;5061283;28;45348;-74
2024/01/15 04:47:32;;;;;;;;;26.00;18.75;;;;;2.49;100.00;100737.16;5061308;28;46045;-74
2024/01/15 04:49:57;;;;;;;;;31.25;25.50;;;;;2.64;100.00;100755.22;5060957;28;45349;-73
2024/01/15 04:52:23;;;;;;;;;26.25;21.00;;;;;2.60;100.00;100750.94;5057387;28;45453;-74
2024/01/15 04:54:48;;;;;;;;;27.75;21.00;;;;;2.58;100.00;100740.53;5057898;28;45397;-73
2024/01/15 04:57:14;;;;;;;;;19.75;14.25;;;;;2.67;100.00;100741.25;5060823;28;46185;-74
2024/01/15 04:59:39;;;;;;;;;31.50;20.25;;;;;2.68;100.00;100754.28;5059439;28;45471;-74
2024/01/15 05:02:05;;;;;;;;;23.25;19.00;;;;;2.66;100.00;100761.25;5061055;28;45339;-73
2024/01/15 05:04:30;;;;;;;;;21.00;19.25;;;;;2.64;100.00;100755.22;5058500;28;45381;-73
2024/01/15 05:06:55;;;;;;;;;23.50;17.25;;;;;2.62;100.00;100752.63;5060825;28;46315;-74
2024/01/15 05:09:21;;;;;;;;;25.50;19.50;;;;;2.66;100.00;100760.41;5059106;28;45283;-74
2024/01/15 05:11:46;;;;;;;;;23.50;21.00;;;;;2.61;100.00;100752.66;5060844;28;45401;-74
2024/01/15 05:14:11;;;;;;;;;34.00;23.75;;;;;2.66;100.00;100763.88;5052820;28;45549;-73
2024/01/15 05:16:47;;;;;;;;;21.50;21.50;;;;;2.51;100.00;100738.88;5059666;28;45449;-74
2024/01/15 05:19:13;;;;;;;;;22.00;19.50;;;;;2.68;100.00;100742.97;5052686;28;45449;-73
2024/01/15 05:21:38;;;;;;;;;28.25;23.75;;;;;2.67;100.00;100744.72;5060654;28;45342;-74
2024/01/15 05:24:03;;;;;;;;;26.75;22.00;;;;;2.75;100.00;100761.13;5060093;28;45519;-74
2024/01/15 05:26:29;;;;;;;;;21.25;18.75;;;;;2.68;100.00;100730.78;5060055;28;45294;-74
2024/01/15 05:28:54;;;;;;;;;31.50;22.50;;;;;2.73;100.00;100733.31;5059904;28;45354;-74
2024/01/15 05:31:19;;;;;;;;;26.50;20.00;;;;;2.36;100.00;100673.88;5040106;28;45333;-74
2024/01/15 05:33:45;;;;;;;;;30.75;20.00;;;;;2.80;100.00;100732.31;5055273;28;45461;-74
2024/01/15 05:36:10;;;;;;;;;27.50;22.25;;;;;2.80;100.00;100734.94;5057504;28;47817;-74
2024/01/15 05:38:35;;;;;;;;;29.25;24.00;;;;;2.81;100.00;100737.53;5048700;28;45312;-74
2024/01/15 05:41:01;;;;;;;;;20.00;18.50;;;;;2.80;100.00;100714.91;5035029;28;45404;-74
2024/01/15 05:43:26;;;;;;;;;21.75;17.50;;;;;2.83;100.00;100721.84;5058112;28;45642;-74
2024/01/15 05:45:51;;;;;;;;;22.00;15.50;;;;;2.81;100.00;100718.41;5048669;28;46478;-74
2024/01/15 05:48:17;;;;;;;;;19.75;18.00;;;;;2.90;100.00;100726.06;5059295;28;46470;-74
2024/01/15 05:50:42;;;;;;;;;20.00;17.75;;;;;2.92;100.00;100726.88;5060287;28;45217;-73
2024/01/15 05:53:08;;;;;;;;;22.25;21.00;;;;;2.65;100.00;100680.38;5065701;28;45335;-74
2024/01/15 05:55:33;;;;;;;;;28.25;18.75;;;;;2.86;100.00;100711.31;5052379;28;47123;-74
2024/01/15 05:57:58;;;;;;;;;29.50;24.75;;;;;2.95;100.00;100724.22;5050055;28;45246;-74
2024/01/15 06:00:24;;;;;;;;;16.50;12.75;;;;;2.92;100.00;100719.06;5055412;28;45257;-74
2024/01/15 06:02:49;;;;;;;;;26.00;17.00;;;;;2.72;100.00;100698.50;5062660;28;45595;-74
2024/01/15 06:05:14;;;;;;;;;18.75;17.25;;;;;2.90;100.00;100719.09;5054995;28;45374;-74
2024/01/15 06:07:40;;;;;;;;;16.75;12.75;;;;;2.91;100.00;100709.50;5059327;28;45284;-74
2024/01/15 06:10:06;;;;;;;;;26.50;17.25;;;;;2.87;100.00;100706.09;5060228;28;45276;-74
2024/01/15 06:12:33;;;;;;;;;21.25;18.00;;;;;2.82;100.00;100705.28;5059784;28;45248;-74
2024/01/15 06:14:58;;;;;;;;;23.50;18.25;;;;;2.87;100.00;100713.94;5056987;28;45420;-74
2024/01/15 06:17:24;;;;;;;;;14.75;12.25;;;;;2.90;100.00;100720.84;5064696;28;45322;-74
2024/01/15 06:19:49;;;;;;;;;19.50;15.00;;;;;2.91;100.00;100728.63;5059985;28;45361;-74
2024/01/15 06:22:14;;;;;;;;;19.75;18.75;;;;;2.89;100.00;100711.28;5059101;28;45417;-74
2024/01/15 06:24:40;;;;;;;;;18.50;14.00;;;;;2.87;100.00;100711.31;5058632;28;45587;-74
2024/01/15 06:27:05;;;;;;;;;18.75;16.50;;;;;2.94;100.00;100720.78;5040960;28;45628;-73
2024/01/15 06:29:31;;;;;;;;;22.50;17.00;;;;;2.97;100.00;100725.94;5057642;28;45350;-73
2024/01/15 06:31:57;;;;;;;;;13.25;12.00;;;;;2.90;100.00;100716.47;5059369;28;45411;-73
2024/01/15 06:34:22;;;;;;;;;20.75;17.00;;;;;2.92;100.00;100716.44;5059397;28;46434;-73
2024/01/15 06:36:47;;;;;;;;;16.25;15.00;;;;;2.99;100.00;100724.16;5059006;28;45402;-74
2024/01/15 06:39:13;;;;;;;;;21.25;14.00;;;;;3.00;100.00;100719.78;5061990;28;45271;-73
2024/01/15 06:41:43;;;;;;;;;20.25;19.50;;;;;2.55;100.00;100650.97;5068171;28;45559;-74
2024/01/15 06:44:11;;;;;;;;;19.75;19.00;;;;;3.00;100.00;100728.50;5062583;28;45459;-73
2024/01/15 06:46:41;;;;;;;;;21.75;19.00;;;;;3.05;100.00;100744.06;5033854;28;45415;-73
2024/01/15 06:49:06;;;;;;;;;25.75;22.25;;;;;3.05;100.00;100741.47;5063003;28;45346;-74
2024/01/15 06:51:32;;;;;;;;;23.25;19.00;;;;;3.04;100.00;100732.75;5062072;28;45244;-73
2024/01/15 06:53:57;;;;;;;;;19.00;17.75;;;;;3.08;100.00;100734.44;5061762;28;45342;-74
2024/01/15 06:56:22;;;;;;;;;17.50;17.50;;;;;3.09;100.00;100737.91;5053649;28;45331;-74
2024/01/15 06:58:48;;;;;;;;;26.50;20.50;;;;;3.05;100.00;100739.72;5044759;28;45257;-73
2024/01/15 07:01:13;;;;;;;;;23.00;20.50;;;;;3.00;100.00;100725.03;5062281;28;45671;-73
2024/01/15 07:03:38;;;;;;;;;33.50;23.75;;;;;3.11;100.00;100742.22;5044897;28;47303;-73
2024/01/15 07:06:04;;;;;;;;;25.75;19.25;;;;;3.09;100.00;100722.25;5060890;28;45972;-73
2024/01/15 07:08:30;;;;;;;;;33.25;22.00;;;;;3.08;100.00;100729.22;5064498;28;45406;-74
2024/01/15 07:10:55;;;;;;;;;28.50;24.00;;;;;3.13;100.00;100726.53;5074045;28;45547;-73
2024/01/15 07:13:20;;;;;;;;;22.75;17.25;;;;;3.10;100.00;100731.81;5063080;28;45355;-73
2024/01/15 07:15:46;;;;;;;;;25.75;21.25;;;;;3.13;100.00;100732.63;5056891;28;45423;-73
2024/01/15 07:18:11;;;;;;;;;23.50;21.50;;;;;3.05;100.00;100728.41;5061329;28;45283;-73
2024/01/15 07:20:36;;;;;;;;;27.75;20.00;;;;;3.10;100.00;100731.81;5037960;28;45324;-73
2024/01/15 07:23:02;;;;;;;;;26.25;21.25;;;;;3.14;100.00;100749.16;5062063;28;45356;-73
2024/01/15 07:25:28;;;;;;;;;31.00;25.25;;;;;3.17;100.00;100772.63;5062564;28;45213;-74
2024/01/15 07:27:54;;;;;;;;;27.50;19.00;;;;;3.19;100.00;100752.53;5061877;28;45229;-74
2024/01/15 07:30:21;;;;;;;;;23.50;20.25;;;;;2.99;100.00;100723.28;5052884;28;45429;-74
2024/01/15 07:32:47;;;;;;;;;27.25;21.50;;;;;3.16;100.00;100752.59;5049660;28;45283;-74
2024/01/15 07:35:13;;;;;;;;;14.25;11.00;;;;;3.21;100.00;100758.59;5061651;28;45363;-74
2024/01/15 07:37:38;;;;;;;;;25.75;24.00;;;;;3.21;100.00;100762.97;5061468;28;45383;-74
2024/01/15 07:40:05;;;;;;;;;23.25;20.75;;;;;3.14;100.00;100750.00;5056197;28;45306;-74
2024/01/15 07:42:31;;;;;;;;;28.75;25.50;;;;;3.26;100.00;100766.34;5054730;28;46257;-74
2024/01/15 07:44:56;;;;;;;;;19.75;18.25;;;;;3.19;100.00;100762.13;5043865;28;45367;-74
2024/01/15 07:47:21;;;;;;;;;26.75;24.75;;;;;3.18;100.00;100784.78;5055607;28;45796;-75
2024/01/15 07:49:47;;;;;;;;;25.25;19.00;;;;;3.20;100.00;100769.09;5061359;28;45503;-74
2024/01/15 07:52:13;;;;;;;;;34.25;23.00;;;;;3.29;100.00;100779.38;5054242;28;46483;-74
2024/01/15 07:54:38;;;;;;;;;25.25;23.00;;;;;3.28;100.00;100773.28;5051900;28;45421;-74
2024/01/15 07:57:04;;;;;;;;;26.50;23.25;;;;;3.27;100.00;100774.19;5056642;28;45337;-74
2024/01/15 07:59:30;;;;;;;;;27.75;22.75;;;;;3.07;100.00;100737.09;5054227;28;45602;-74
2024/01/15 08:01:55;;;;;;;;;20.50;18.50;;;;;3.12;100.00;100743.94;5056051;28;46552;-74
2024/01/15 08:04:21;;;;;;;;;32.50;24.50;;;;;3.11;100.00;100749.19;5040303;28;45597;-74
2024/01/15 08:06:47;;;;;;;;;21.00;20.25;;;;;3.37;100.00;100790.56;5059981;28;45451;-74
2024/01/15 08:09:13;;;;;;;;;29.00;23.75;;;;;3.34;100.00;100786.22;5063144;28;45375;-74
2024/01/15 08:11:41;;;;;;;;;31.00;21.25;;;;;3.28;100.00;100777.63;5059954;28;45960;-74
2024/01/15 08:14:07;;;;;;;;;28.25;22.75;;;;;3.32;100.00;100779.31;5060536;28;45324;-74
2024/01/15 08:16:33;;;;;;;;;26.75;22.00;;;;;3.33;100.00;100778.44;5048890;28;45380;-74
2024/01/15 08:18:58;;;;;;;;;36.75;25.75;;;;;3.25;100.00;100778.56;5042499;28;45422;-74
2024/01/15 08:21:24;;;;;;;;;26.75;23.25;;;;;3.36;100.00;100801.91;5049353;28;46211;-75
2024/01/15 08:23:49;;;;;;;;;26.25;23.00;;;;;2.93;100.00;100723.41;5048275;28;45619;-74
2024/01/15 08:26:14;;;;;;;;;31.75;25.00;;;;;3.35;100.00;100790.56;5067124;28;45615;-74
2024/01/15 08:28:40;;;;;;;;;31.00;20.75;;;;;3.42;100.00;100801.78;5060727;28;45374;-73
2024/01/15 08:31:05;;;;;;;;;36.00;23.25;;;;;3.39;100.00;100789.63;5061024;28;48568;-73
2024/01/15 08:33:30;;;;;;;;;20.25;19.00;;;;;3.47;100.00;100803.41;5061006;28;45285;-73
2024/01/15 08:35:56;;;;;;;;;24.25;22.00;;;;;3.45;100.00;100799.97;5058019;28;45811;-73
2024/01/15 08:38:21;;;;;;;;;32.25;27.50;;;;;3.33;100.00;100787.13;5043636;28;45532;-73
2024/01/15 08:40:47;;;;;;;;;40.50;26.75;;;;;3.54;100.00;100812.00;5061296;28;45348;-73
2024/01/15 08:43:12;;;;;;;;;21.25;19.00;;;;;3.55;100.00;100812.00;5060828;28;45294;-73
2024/01/15 08:45:38;;;;;;;;;24.25;23.75;;;;;3.51;100.00;100812.94;5057110;28;45374;-73
2024/01/15 08:48:04;;;;;;;;;27.50;20.00;;;;;3.57;100.00;100825.88;5060622;28;45333;-73
2024/01/15 08:50:29;;;;;;;;;25.00;22.00;;;;;3.61;100.00;100843.25;5059622;28;46077;-73
2024/01/15 08:52:55;;;;;;;;;30.00;23.50;;;;;3.58;100.00;100829.38;5061006;28;45311;-73
2024/01/15 08:55:22;;;;;;;;;24.00;16.25;;;;;3.63;100.00;100844.06;5058737;28;45480;-73
2024/01/15 08:57:48;;;;;;;;;31.00;29.25;;;;;3.63;100.00;100844.06;5050505;28;45484;-73
2024/01/15 09:00:14;;;;;;;;;31.25;23.75;;;;;3.68;100.00;100846.63;5058540;28;46022;-73
2024/01/15 09:02:39;;;;;;;;;27.25;22.75;;;;;3.73;100.00;100857.84;5040249;28;45294;-73
2024/01/15 09:05:04;;;;;;;;;24.00;21.75;;;;;3.76;100.00;100860.44;5059472;28;45294;-73
2024/01/15 09:07:30;;;;;;;;;29.00;22.00;;;;;3.76;100.00;100852.59;5050274;28;45277;-73
2024/01/15 09:09:55;;;;;;;;;28.00;21.00;;;;;3.67;100.00;100830.06;5031881;28;48049;-73
2024/01/15 09:12:22;;;;;;;;;23.25;20.00;;;;;3.67;100.00;100839.66;5060315;28;45230;-73
2024/01/15 09:14:47;;;;;;;;;29.00;21.00;;;;;3.90;100.00;100871.47;5047692;28;45240;-73
2024/01/15 09:17:13;;;;;;;;;24.50;20.75;;;;;3.93;100.00;100875.78;5042949;28;45340;-73
2024/01/15 09:19:41;;;;;;;;;30.25;21.75;;;;;3.78;100.00;100844.69;5058990;28;45529;-73
2024/01/15 09:22:07;;;;;;;;;19.50;19.50;;;;;3.74;100.00;100843.88;5059349;28;46257;-73
2024/01/15 09:24:32;;;;;;;;;23.50;19.50;;;;;3.84;100.00;100853.28;5060416;28;45307;-73
2024/01/15 09:26:58;;;;;;;;;25.75;24.50;;;;;3.84;100.00;100852.41;5054323;28;45489;-73
2024/01/15 09:29:23;;;;;;;;;25.00;19.00;;;;;3.84;100.00;100857.66;5055193;28;46395;-73
2024/01/15 09:31:50;;;;;;;;;24.00;21.75;;;;;3.67;100.00;100832.69;5039488;28;45279;-73
2024/01/15 09:34:15;;;;;;;;;23.25;22.00;;;;;3.88;100.00;100864.56;5060390;28;45371;-73
2024/01/15 09:36:44;;;;;;;;;25.25;18.50;;;;;3.79;100.00;100846.44;5053698;28;45327;-73
2024/01/15 09:39:11;;;;;;;;;25.50;20.25;;;;;3.94;100.00;100873.16;5060086;28;46228;-72
2024/01/15 09:41:39;;;;;;;;;30.25;23.00;;;;;4.00;100.00;100869.53;5042679;28;45343;-73
2024/01/15 09:44:05;;;;;;;;;29.00;21.75;;;;;3.91;100.00;100828.75;5040756;28;45193;-73
2024/01/15 09:46:34;;;;;;;;;19.00;17.75;;;;;4.27;100.00;100886.47;5048993;28;45318;-73
2024/01/15 09:49:01;;;;;;;;;21.75;19.75;;;;;4.29;100.00;100867.22;5039439;28;47386;-73
2024/01/15 09:51:30;;;;;;;;;23.00;19.00;;;;;4.30;100.00;100882.03;5059807;28;45323;-73
2024/01/15 09:53:57;;;;;;;;;21.25;15.75;;;;;4.26;100.00;100880.38;5050382;28;45191;-73
2024/01/15 09:56:23;;;;;;;;;28.75;20.75;;;;;4.26;100.00;100877.75;5060474;28;45269;-73
2024/01/15 09:58:48;;;;;;;;;20.75;15.50;;;;;4.25;100.00;100885.66;5055390;28;46233;-73
2024/01/15 10:01:16;;;;;;;;;24.75;19.50;;;;;4.29;100.00;100893.38;5060108;28;45363;-73
2024/01/15 10:03:42;;;;;;;;;16.25;16.25;;;;;4.19;100.00;100884.00;5059778;28;45425;-73
2024/01/15 10:06:08;;;;;;;;;19.00;15.00;;;;;4.18;100.00;100890.16;5052334;28;45333;-73
2024/01/15 10:08:36;;;;;;;;;19.00;17.75;;;;;4.26;100.00;100897.81;5049260;28;46382;-73
2024/01/15 10:11:02;;;;;;;;;12.50;11.75;;;;;4.31;100.00;100909.09;5059969;28;45298;-73
2024/01/15 10:13:30;;;;;;;;;15.00;14.50;;;;;4.35;100.00;100913.38;5055476;28;45434;-73
2024/01/15 10:15:55;;;;;;;;;16.00;13.75;;;;;4.24;100.00;100895.25;5041690;28;45371;-73
2024/01/15 10:18:20;;;;;;;;;15.50;12.00;;;;;4.29;100.00;100897.78;5059460;28;46030;-73
2024/01/15 10:20:47;;;;;;;;;15.75;14.00;;;;;4.37;100.00;100895.88;5047656;28;45254;-73
2024/01/15 10:23:14;;;;;;;;;16.75;11.75;;;;;4.32;100.00;100877.63;5059061;28;45351;-73
2024/01/15 10:25:42;;;;;;;;;15.00;12.50;;;;;4.45;100.00;100904.44;5059497;28;45578;-73
2024/01/15 10:28:07;;;;;;;;;18.75;13.00;;;;;4.43;100.00;100893.97;5041210;28;47280;-73
2024/01/15 10:30:33;;;;;;;;;9.75;8.00;;;;;4.42;99.51;100887.00;5059062;28;45252;-73
2024/01/15 10:33:00;;;;;;;;;17.00;13.00;;;;;4.48;100.00;100894.72;5059818;28;45360;-73
2024/01/15 10:35:27;;;;;;;;;16.00;12.00;;;;;4.54;98.50;100897.25;5059820;28;45370;-73
2024/01/15 10:37:52;;;;;;;;;5.00;5.00;;;;;4.57;94.76;100902.41;5058229;28;48214;-73
2024/01/15 10:40:19;;;;;;;;;14.00;7.75;;;;;4.60;93.91;100904.09;5059693;28;45259;-73
2024/01/15 10:42:44;;;;;;;;;9.75;9.25;;;;;4.65;94.56;100916.19;5039515;28;45185;-73
2024/01/15 10:45:09;;;;;;;;;11.25;7.25;;;;;4.62;95.33;100903.16;5057172;28;45323;-73
2024/01/15 10:47:35;;;;;;;;;6.75;5.25;;;;;4.65;87.99;100910.97;5059367;28;46002;-73
2024/01/15 10:50:01;;;;;;;;;4.75;3.75;;;;;4.64;87.30;100901.41;5041702;28;45742;-74
2024/01/15 10:52:28;;;;;;;;;3.50;1.75;;;;;4.70;84.20;100906.50;5041367;28;45419;-73
2024/01/15 10:54:54;;;;;;;;;2.00;2.00;;;;;4.65;84.06;100902.25;5059422;28;45469;-73
2024/01/15 10:57:22;;;;;;;;;4.00;2.00;;;;;4.73;82.83;100916.06;5059198;28;45275;-74
2024/01/15 10:59:47;;;;;;;;;1.75;1.75;;;;;4.67;78.61;100895.22;5055568;28;45255;-73
2024/01/15 11:02:14;;;;;;;;;4.50;3.00;;;;;4.43;77.81;100843.38;5055056;28;45735;-73